Terminal Aerodrome Forecast
Issued by NWS

Home | Current Version | Previous Version | Text Only | Print | Product List | Glossary On
Versions: 1 2 3 4 5 6 7 8 9 10 11 12 13 14 15 16
000
FTUS43 KEAX 211744 AAA
TAFSTJ
TAF AMD
KSTJ 211744Z 2118/2212 18015G24KT P6SM OVC025
     FM211900 19018G28KT P6SM VCTS OVC035CB
     FM212100 17010G25KT P6SM -TSRA OVC030CB
      TEMPO 2121/2123 VRB30G45KT 2SM TSRA OVC015CB
     FM212300 33015G30KT 3SM SHRA VCTS BKN010CB OVC020
     FM220200 33013KT 6SM -SHRA OVC015
     FM220400 33008KT P6SM VCSH OVC060
     FM220700 33006KT P6SM BKN200=

USA.gov is the U.S. government's official web portal to all federal, state and local government web resources and services.